sensor_id;sensor_type;location;lat;lon;timestamp;P1;durP1;ratioP1;P2;durP2;ratioP2
22622;SDS011;11478;51.094;7.030;2023-07-13T00:00:43;7.00;;;1.80;;
22622;SDS011;11478;51.094;7.030;2023-07-13T00:03:09;8.65;;;1.92;;
22622;SDS011;11478;51.094;7.030;2023-07-13T00:05:40;3.85;;;1.58;;
22622;SDS011;11478;51.094;7.030;2023-07-13T00:08:06;3.40;;;1.40;;
22622;SDS011;11478;51.094;7.030;2023-07-13T00:10:39;8.48;;;2.10;;
22622;SDS011;11478;51.094;7.030;2023-07-13T00:13:06;7.30;;;1.92;;
22622;SDS011;11478;51.094;7.030;2023-07-13T00:15:46;6.25;;;2.03;;
22622;SDS011;11478;51.094;7.030;2023-07-13T00:18:13;8.35;;;1.70;;
22622;SDS011;11478;51.094;7.030;2023-07-13T00:23:16;6.00;;;1.88;;
22622;SDS011;11478;51.094;7.030;2023-07-13T00:25:42;10.93;;;2.27;;
22622;SDS011;11478;51.094;7.030;2023-07-13T00:28:08;4.97;;;1.77;;
22622;SDS011;11478;51.094;7.030;2023-07-13T00:30:34;6.57;;;1.73;;
22622;SDS011;11478;51.094;7.030;2023-07-13T00:33:00;3.88;;;1.60;;
22622;SDS011;11478;51.094;7.030;2023-07-13T00:35:26;7.82;;;1.85;;
22622;SDS011;11478;51.094;7.030;2023-07-13T00:37:52;5.85;;;2.13;;
22622;SDS011;11478;51.094;7.030;2023-07-13T00:40:18;8.68;;;2.20;;
22622;SDS011;11478;51.094;7.030;2023-07-13T00:42:44;5.55;;;2.10;;
22622;SDS011;11478;51.094;7.030;2023-07-13T00:47:58;11.45;;;2.22;;
22622;SDS011;11478;51.094;7.030;2023-07-13T00:50:23;7.55;;;2.00;;
22622;SDS011;11478;51.094;7.030;2023-07-13T00:52:52;5.25;;;1.85;;
22622;SDS011;11478;51.094;7.030;2023-07-13T00:55:20;6.65;;;1.70;;
22622;SDS011;11478;51.094;7.030;2023-07-13T00:57:49;6.90;;;1.70;;
22622;SDS011;11478;51.094;7.030;2023-07-13T01:00:15;5.65;;;1.90;;
22622;SDS011;11478;51.094;7.030;2023-07-13T01:02:48;5.78;;;1.80;;
22622;SDS011;11478;51.094;7.030;2023-07-13T01:05:16;7.78;;;1.88;;
22622;SDS011;11478;51.094;7.030;2023-07-13T01:07:51;5.53;;;1.88;;
22622;SDS011;11478;51.094;7.030;2023-07-13T01:10:21;6.47;;;1.90;;
22622;SDS011;11478;51.094;7.030;2023-07-13T01:12:57;6.18;;;1.80;;
22622;SDS011;11478;51.094;7.030;2023-07-13T01:15:37;7.25;;;2.20;;
22622;SDS011;11478;51.094;7.030;2023-07-13T01:18:17;4.78;;;1.90;;
22622;SDS011;11478;51.094;7.030;2023-07-13T01:23:26;4.35;;;1.65;;
22622;SDS011;11478;51.094;7.030;2023-07-13T01:25:55;7.65;;;2.20;;
22622;SDS011;11478;51.094;7.030;2023-07-13T01:28:22;4.43;;;1.67;;
22622;SDS011;11478;51.094;7.030;2023-07-13T01:30:52;6.45;;;1.80;;
22622;SDS011;11478;51.094;7.030;2023-07-13T01:33:19;7.07;;;1.92;;
22622;SDS011;11478;51.094;7.030;2023-07-13T01:35:56;7.18;;;1.80;;
22622;SDS011;11478;51.094;7.030;2023-07-13T01:38:25;6.85;;;1.70;;
22622;SDS011;11478;51.094;7.030;2023-07-13T01:40:52;6.32;;;2.00;;
22622;SDS011;11478;51.094;7.030;2023-07-13T01:43:18;7.13;;;1.88;;
22622;SDS011;11478;51.094;7.030;2023-07-13T01:45:46;9.27;;;2.10;;
22622;SDS011;11478;51.094;7.030;2023-07-13T01:48:12;7.90;;;1.92;;
22622;SDS011;11478;51.094;7.030;2023-07-13T01:50:39;6.07;;;1.77;;
22622;SDS011;11478;51.094;7.030;2023-07-13T01:53:05;5.38;;;1.90;;
22622;SDS011;11478;51.094;7.030;2023-07-13T01:55:31;7.25;;;1.83;;
22622;SDS011;11478;51.094;7.030;2023-07-13T01:57:58;7.25;;;2.20;;
22622;SDS011;11478;51.094;7.030;2023-07-13T02:00:24;6.78;;;2.10;;
22622;SDS011;11478;51.094;7.030;2023-07-13T02:02:50;6.75;;;2.00;;
22622;SDS011;11478;51.094;7.030;2023-07-13T02:05:18;5.40;;;1.88;;
22622;SDS011;11478;51.094;7.030;2023-07-13T02:07:44;6.60;;;1.98;;
22622;SDS011;11478;51.094;7.030;2023-07-13T02:10:11;5.53;;;1.92;;
22622;SDS011;11478;51.094;7.030;2023-07-13T02:12:37;6.28;;;2.30;;
22622;SDS011;11478;51.094;7.030;2023-07-13T02:15:04;9.65;;;2.05;;
22622;SDS011;11478;51.094;7.030;2023-07-13T02:17:31;4.05;;;1.95;;
22622;SDS011;11478;51.094;7.030;2023-07-13T02:19:58;7.28;;;2.30;;
22622;SDS011;11478;51.094;7.030;2023-07-13T02:22:24;7.72;;;2.20;;
22622;SDS011;11478;51.094;7.030;2023-07-13T02:24:51;4.82;;;2.08;;
22622;SDS011;11478;51.094;7.030;2023-07-13T02:27:19;6.28;;;1.90;;
22622;SDS011;11478;51.094;7.030;2023-07-13T02:29:45;5.72;;;1.90;;
22622;SDS011;11478;51.094;7.030;2023-07-13T02:32:11;5.72;;;2.08;;
22622;SDS011;11478;51.094;7.030;2023-07-13T02:34:38;8.15;;;2.15;;
22622;SDS011;11478;51.094;7.030;2023-07-13T02:37:05;5.22;;;1.83;;
22622;SDS011;11478;51.094;7.030;2023-07-13T02:39:30;6.40;;;1.95;;
22622;SDS011;11478;51.094;7.030;2023-07-13T02:42:01;6.95;;;2.10;;
22622;SDS011;11478;51.094;7.030;2023-07-13T02:44:27;8.15;;;2.20;;
22622;SDS011;11478;51.094;7.030;2023-07-13T02:47:02;8.57;;;2.38;;
22622;SDS011;11478;51.094;7.030;2023-07-13T02:49:27;7.88;;;2.30;;
22622;SDS011;11478;51.094;7.030;2023-07-13T02:52:09;9.50;;;2.50;;
22622;SDS011;11478;51.094;7.030;2023-07-13T02:54:35;6.15;;;2.13;;
22622;SDS011;11478;51.094;7.030;2023-07-13T02:57:01;5.90;;;2.30;;
22622;SDS011;11478;51.094;7.030;2023-07-13T02:59:28;6.78;;;2.53;;
22622;SDS011;11478;51.094;7.030;2023-07-13T03:01:54;6.88;;;2.13;;
22622;SDS011;11478;51.094;7.030;2023-07-13T03:04:20;5.10;;;2.30;;
22622;SDS011;11478;51.094;7.030;2023-07-13T03:09:23;8.68;;;1.88;;
22622;SDS011;11478;51.094;7.030;2023-07-13T03:11:55;9.15;;;2.70;;
22622;SDS011;11478;51.094;7.030;2023-07-13T03:14:24;7.03;;;2.30;;
22622;SDS011;11478;51.094;7.030;2023-07-13T03:16:58;8.23;;;2.20;;
22622;SDS011;11478;51.094;7.030;2023-07-13T03:19:24;5.20;;;2.20;;
22622;SDS011;11478;51.094;7.030;2023-07-13T03:21:51;6.88;;;2.83;;
22622;SDS011;11478;51.094;7.030;2023-07-13T03:24:18;6.03;;;2.38;;
22622;SDS011;11478;51.094;7.030;2023-07-13T03:26:44;7.05;;;2.13;;
22622;SDS011;11478;51.094;7.030;2023-07-13T03:29:10;5.68;;;2.22;;
22622;SDS011;11478;51.094;7.030;2023-07-13T03:31:45;5.65;;;1.90;;
22622;SDS011;11478;51.094;7.030;2023-07-13T03:34:11;5.60;;;2.30;;
22622;SDS011;11478;51.094;7.030;2023-07-13T03:36:49;7.40;;;2.38;;
22622;SDS011;11478;51.094;7.030;2023-07-13T03:39:15;5.65;;;1.98;;
22622;SDS011;11478;51.094;7.030;2023-07-13T03:41:43;4.55;;;2.03;;
22622;SDS011;11478;51.094;7.030;2023-07-13T03:44:09;11.05;;;2.20;;
22622;SDS011;11478;51.094;7.030;2023-07-13T03:49:20;7.32;;;2.25;;
22622;SDS011;11478;51.094;7.030;2023-07-13T03:54:18;10.10;;;2.55;;
22622;SDS011;11478;51.094;7.030;2023-07-13T03:56:54;7.63;;;2.25;;
22622;SDS011;11478;51.094;7.030;2023-07-13T03:59:20;7.05;;;2.13;;
22622;SDS011;11478;51.094;7.030;2023-07-13T04:01:52;5.95;;;2.15;;
22622;SDS011;11478;51.094;7.030;2023-07-13T04:04:17;8.50;;;2.50;;
22622;SDS011;11478;51.094;7.030;2023-07-13T04:06:45;5.55;;;2.10;;
22622;SDS011;11478;51.094;7.030;2023-07-13T04:09:11;6.80;;;2.20;;
22622;SDS011;11478;51.094;7.030;2023-07-13T04:11:45;5.63;;;1.88;;
22622;SDS011;11478;51.094;7.030;2023-07-13T04:14:10;6.43;;;2.25;;
22622;SDS011;11478;51.094;7.030;2023-07-13T04:16:49;7.35;;;2.55;;
22622;SDS011;11478;51.094;7.030;2023-07-13T04:19:15;5.38;;;1.90;;
22622;SDS011;11478;51.094;7.030;2023-07-13T04:21:43;7.97;;;2.20;;
22622;SDS011;11478;51.094;7.030;2023-07-13T04:24:09;7.10;;;2.17;;
22622;SDS011;11478;51.094;7.030;2023-07-13T04:26:45;6.32;;;2.35;;
22622;SDS011;11478;51.094;7.030;2023-07-13T04:29:10;4.40;;;2.10;;
22622;SDS011;11478;51.094;7.030;2023-07-13T04:31:43;7.65;;;2.50;;
22622;SDS011;11478;51.094;7.030;2023-07-13T04:34:08;6.55;;;1.95;;
22622;SDS011;11478;51.094;7.030;2023-07-13T04:36:46;4.97;;;2.47;;
22622;SDS011;11478;51.094;7.030;2023-07-13T04:39:11;5.65;;;1.92;;
22622;SDS011;11478;51.094;7.030;2023-07-13T04:41:53;7.38;;;2.28;;
22622;SDS011;11478;51.094;7.030;2023-07-13T04:44:21;6.15;;;2.00;;
22622;SDS011;11478;51.094;7.030;2023-07-13T04:46:51;7.00;;;2.42;;
22622;SDS011;11478;51.094;7.030;2023-07-13T04:49:16;6.60;;;2.75;;
22622;SDS011;11478;51.094;7.030;2023-07-13T04:51:43;3.90;;;2.08;;
22622;SDS011;11478;51.094;7.030;2023-07-13T04:54:09;5.15;;;2.22;;
22622;SDS011;11478;51.094;7.030;2023-07-13T04:56:34;6.80;;;2.00;;
22622;SDS011;11478;51.094;7.030;2023-07-13T04:59:00;5.85;;;2.38;;
22622;SDS011;11478;51.094;7.030;2023-07-13T05:01:28;3.70;;;1.67;;
22622;SDS011;11478;51.094;7.030;2023-07-13T05:03:54;3.17;;;1.73;;
22622;SDS011;11478;51.094;7.030;2023-07-13T05:06:25;5.47;;;2.00;;
22622;SDS011;11478;51.094;7.030;2023-07-13T05:08:50;6.55;;;2.30;;
22622;SDS011;11478;51.094;7.030;2023-07-13T05:13:45;5.80;;;1.90;;
22622;SDS011;11478;51.094;7.030;2023-07-13T05:16:11;5.57;;;2.00;;
22622;SDS011;11478;51.094;7.030;2023-07-13T05:18:37;4.50;;;1.90;;
22622;SDS011;11478;51.094;7.030;2023-07-13T05:21:20;4.40;;;2.33;;
22622;SDS011;11478;51.094;7.030;2023-07-13T05:23:46;5.57;;;2.03;;
22622;SDS011;11478;51.094;7.030;2023-07-13T05:26:13;6.35;;;2.35;;
22622;SDS011;11478;51.094;7.030;2023-07-13T05:28:39;4.93;;;2.13;;
22622;SDS011;11478;51.094;7.030;2023-07-13T05:31:07;5.03;;;2.00;;
22622;SDS011;11478;51.094;7.030;2023-07-13T05:33:34;6.15;;;2.17;;
22622;SDS011;11478;51.094;7.030;2023-07-13T05:36:00;4.45;;;1.70;;
22622;SDS011;11478;51.094;7.030;2023-07-13T05:38:26;5.20;;;2.00;;
22622;SDS011;11478;51.094;7.030;2023-07-13T05:40:53;3.72;;;1.88;;
22622;SDS011;11478;51.094;7.030;2023-07-13T05:43:21;5.18;;;2.00;;
22622;SDS011;11478;51.094;7.030;2023-07-13T05:45:50;7.43;;;1.90;;
22622;SDS011;11478;51.094;7.030;2023-07-13T05:48:18;7.10;;;1.90;;
22622;SDS011;11478;51.094;7.030;2023-07-13T05:50:46;7.35;;;2.15;;
22622;SDS011;11478;51.094;7.030;2023-07-13T05:53:13;4.97;;;2.40;;
22622;SDS011;11478;51.094;7.030;2023-07-13T05:55:43;5.90;;;2.22;;
22622;SDS011;11478;51.094;7.030;2023-07-13T05:58:13;6.97;;;2.22;;
22622;SDS011;11478;51.094;7.030;2023-07-13T06:00:41;6.13;;;2.15;;
22622;SDS011;11478;51.094;7.030;2023-07-13T06:03:06;7.18;;;2.30;;
22622;SDS011;11478;51.094;7.030;2023-07-13T06:05:34;9.80;;;2.35;;
22622;SDS011;11478;51.094;7.030;2023-07-13T06:08:02;9.40;;;2.05;;
22622;SDS011;11478;51.094;7.030;2023-07-13T06:10:35;6.35;;;2.03;;
22622;SDS011;11478;51.094;7.030;2023-07-13T06:13:01;9.07;;;2.38;;
22622;SDS011;11478;51.094;7.030;2023-07-13T06:15:28;7.30;;;2.10;;
22622;SDS011;11478;51.094;7.030;2023-07-13T06:17:54;7.22;;;2.33;;
22622;SDS011;11478;51.094;7.030;2023-07-13T06:20:22;8.93;;;2.55;;
22622;SDS011;11478;51.094;7.030;2023-07-13T06:22:48;6.82;;;2.13;;
22622;SDS011;11478;51.094;7.030;2023-07-13T06:25:15;6.93;;;2.45;;
22622;SDS011;11478;51.094;7.030;2023-07-13T06:30:11;10.10;;;2.25;;
22622;SDS011;11478;51.094;7.030;2023-07-13T06:32:44;8.20;;;2.50;;
22622;SDS011;11478;51.094;7.030;2023-07-13T06:35:15;8.18;;;2.42;;
22622;SDS011;11478;51.094;7.030;2023-07-13T06:37:48;9.30;;;2.72;;
22622;SDS011;11478;51.094;7.030;2023-07-13T06:40:13;8.05;;;2.38;;
22622;SDS011;11478;51.094;7.030;2023-07-13T06:42:49;10.63;;;2.83;;
22622;SDS011;11478;51.094;7.030;2023-07-13T06:45:15;6.45;;;2.35;;
22622;SDS011;11478;51.094;7.030;2023-07-13T06:47:44;7.18;;;2.28;;
22622;SDS011;11478;51.094;7.030;2023-07-13T06:50:13;12.80;;;2.88;;
22622;SDS011;11478;51.094;7.030;2023-07-13T06:52:42;11.25;;;2.38;;
22622;SDS011;11478;51.094;7.030;2023-07-13T06:55:08;13.85;;;2.45;;
22622;SDS011;11478;51.094;7.030;2023-07-13T06:57:38;10.15;;;3.05;;
22622;SDS011;11478;51.094;7.030;2023-07-13T07:00:04;9.75;;;2.95;;
22622;SDS011;11478;51.094;7.030;2023-07-13T07:02:31;11.63;;;2.90;;
22622;SDS011;11478;51.094;7.030;2023-07-13T07:04:57;9.20;;;3.00;;
22622;SDS011;11478;51.094;7.030;2023-07-13T07:07:25;10.98;;;3.00;;
22622;SDS011;11478;51.094;7.030;2023-07-13T08:16:32;7.45;;;2.95;;
22622;SDS011;11478;51.094;7.030;2023-07-13T08:19:09;13.98;;;3.78;;
22622;SDS011;11478;51.094;7.030;2023-07-13T08:21:36;21.75;;;4.45;;
22622;SDS011;11478;51.094;7.030;2023-07-13T08:24:03;14.70;;;3.70;;
22622;SDS011;11478;51.094;7.030;2023-07-13T08:26:29;13.73;;;3.90;;
22622;SDS011;11478;51.094;7.030;2023-07-13T08:29:01;12.15;;;3.70;;
22622;SDS011;11478;51.094;7.030;2023-07-13T08:31:28;10.70;;;3.25;;
22622;SDS011;11478;51.094;7.030;2023-07-13T08:34:01;11.60;;;3.25;;
22622;SDS011;11478;51.094;7.030;2023-07-13T08:36:27;8.93;;;3.40;;
22622;SDS011;11478;51.094;7.030;2023-07-13T08:38:56;8.40;;;3.63;;
22622;SDS011;11478;51.094;7.030;2023-07-13T08:41:22;9.95;;;3.67;;
22622;SDS011;11478;51.094;7.030;2023-07-13T08:43:51;10.30;;;3.50;;
22622;SDS011;11478;51.094;7.030;2023-07-13T08:46:37;11.52;;;3.47;;
22622;SDS011;11478;51.094;7.030;2023-07-13T08:51:52;8.32;;;3.15;;
22622;SDS011;11478;51.094;7.030;2023-07-13T08:54:37;7.97;;;2.58;;
22622;SDS011;11478;51.094;7.030;2023-07-13T08:57:12;9.65;;;3.40;;
22622;SDS011;11478;51.094;7.030;2023-07-13T08:59:47;9.23;;;2.80;;
22622;SDS011;11478;51.094;7.030;2023-07-13T09:02:25;7.18;;;3.05;;
22622;SDS011;11478;51.094;7.030;2023-07-13T09:05:18;7.43;;;3.03;;
22622;SDS011;11478;51.094;7.030;2023-07-13T09:16:12;6.32;;;2.55;;
22622;SDS011;11478;51.094;7.030;2023-07-13T09:18:44;8.13;;;2.55;;
22622;SDS011;11478;51.094;7.030;2023-07-13T09:27:35;8.70;;;2.55;;
22622;SDS011;11478;51.094;7.030;2023-07-13T09:30:43;6.72;;;2.17;;
22622;SDS011;11478;51.094;7.030;2023-07-13T09:33:25;8.23;;;2.55;;
22622;SDS011;11478;51.094;7.030;2023-07-13T09:35:59;7.60;;;2.75;;
22622;SDS011;11478;51.094;7.030;2023-07-13T09:38:27;6.80;;;2.78;;
22622;SDS011;11478;51.094;7.030;2023-07-13T09:44:00;6.50;;;2.53;;
22622;SDS011;11478;51.094;7.030;2023-07-13T09:46:34;10.43;;;2.30;;
22622;SDS011;11478;51.094;7.030;2023-07-13T09:49:11;7.70;;;2.50;;
22622;SDS011;11478;51.094;7.030;2023-07-13T09:51:38;7.50;;;2.80;;
22622;SDS011;11478;51.094;7.030;2023-07-13T09:54:25;5.20;;;2.20;;
22622;SDS011;11478;51.094;7.030;2023-07-13T09:59:30;7.07;;;2.83;;
22622;SDS011;11478;51.094;7.030;2023-07-13T10:02:01;6.88;;;2.35;;
22622;SDS011;11478;51.094;7.030;2023-07-13T10:04:38;6.90;;;2.35;;
22622;SDS011;11478;51.094;7.030;2023-07-13T10:09:31;9.20;;;2.35;;
22622;SDS011;11478;51.094;7.030;2023-07-13T10:11:57;10.60;;;2.45;;
22622;SDS011;11478;51.094;7.030;2023-07-13T10:14:29;6.15;;;2.10;;
22622;SDS011;11478;51.094;7.030;2023-07-13T10:17:13;11.05;;;2.25;;
22622;SDS011;11478;51.094;7.030;2023-07-13T10:23:40;4.95;;;2.05;;
22622;SDS011;11478;51.094;7.030;2023-07-13T10:26:29;7.45;;;2.47;;
22622;SDS011;11478;51.094;7.030;2023-07-13T10:29:06;10.52;;;2.47;;
22622;SDS011;11478;51.094;7.030;2023-07-13T10:35:08;5.60;;;2.00;;
22622;SDS011;11478;51.094;7.030;2023-07-13T10:38:10;8.95;;;2.15;;
22622;SDS011;11478;51.094;7.030;2023-07-13T10:41:06;4.40;;;1.75;;
22622;SDS011;11478;51.094;7.030;2023-07-13T10:47:13;5.97;;;2.13;;
22622;SDS011;11478;51.094;7.030;2023-07-13T10:50:01;6.95;;;2.13;;
22622;SDS011;11478;51.094;7.030;2023-07-13T11:05:35;8.68;;;2.70;;
22622;SDS011;11478;51.094;7.030;2023-07-13T11:08:13;6.57;;;2.10;;
22622;SDS011;11478;51.094;7.030;2023-07-13T11:11:01;4.57;;;2.00;;
22622;SDS011;11478;51.094;7.030;2023-07-13T11:34:01;9.00;;;3.20;;
22622;SDS011;11478;51.094;7.030;2023-07-13T11:37:13;7.75;;;2.25;;
22622;SDS011;11478;51.094;7.030;2023-07-13T11:42:44;5.15;;;1.70;;
22622;SDS011;11478;51.094;7.030;2023-07-13T11:45:28;5.78;;;2.00;;
22622;SDS011;11478;51.094;7.030;2023-07-13T11:48:34;5.85;;;2.10;;
22622;SDS011;11478;51.094;7.030;2023-07-13T11:51:46;6.93;;;2.22;;
22622;SDS011;11478;51.094;7.030;2023-07-13T11:54:29;7.22;;;2.10;;
22622;SDS011;11478;51.094;7.030;2023-07-13T11:57:32;10.77;;;2.05;;
22622;SDS011;11478;51.094;7.030;2023-07-13T12:00:04;7.72;;;2.20;;
22622;SDS011;11478;51.094;7.030;2023-07-13T12:02:43;5.10;;;2.05;;
22622;SDS011;11478;51.094;7.030;2023-07-13T12:07:50;8.15;;;2.10;;
22622;SDS011;11478;51.094;7.030;2023-07-13T12:10:28;6.32;;;2.13;;
22622;SDS011;11478;51.094;7.030;2023-07-13T12:13:02;9.13;;;1.70;;
22622;SDS011;11478;51.094;7.030;2023-07-13T12:15:37;9.15;;;2.13;;
22622;SDS011;11478;51.094;7.030;2023-07-13T12:18:14;4.47;;;1.58;;
22622;SDS011;11478;51.094;7.030;2023-07-13T12:20:44;4.95;;;1.60;;
22622;SDS011;11478;51.094;7.030;2023-07-13T12:23:22;7.13;;;2.53;;
22622;SDS011;11478;51.094;7.030;2023-07-13T12:26:08;8.25;;;1.73;;
22622;SDS011;11478;51.094;7.030;2023-07-13T12:28:47;5.13;;;1.98;;
22622;SDS011;11478;51.094;7.030;2023-07-13T12:32:03;3.83;;;1.67;;
22622;SDS011;11478;51.094;7.030;2023-07-13T12:34:15;5.15;;;1.98;;
22622;SDS011;11478;51.094;7.030;2023-07-13T12:36:47;5.78;;;1.90;;
22622;SDS011;11478;51.094;7.030;2023-07-13T12:45:09;5.40;;;1.88;;
22622;SDS011;11478;51.094;7.030;2023-07-13T12:47:40;6.85;;;1.80;;
22622;SDS011;11478;51.094;7.030;2023-07-13T12:50:17;7.55;;;1.58;;
22622;SDS011;11478;51.094;7.030;2023-07-13T12:52:50;7.03;;;1.88;;
22622;SDS011;11478;51.094;7.030;2023-07-13T12:55:40;5.85;;;1.90;;
22622;SDS011;11478;51.094;7.030;2023-07-13T12:58:40;2.97;;;1.50;;
22622;SDS011;11478;51.094;7.030;2023-07-13T13:03:47;3.47;;;1.60;;
22622;SDS011;11478;51.094;7.030;2023-07-13T13:06:33;3.10;;;1.40;;
22622;SDS011;11478;51.094;7.030;2023-07-13T13:12:12;16.90;;;2.22;;
22622;SDS011;11478;51.094;7.030;2023-07-13T13:14:41;6.65;;;1.60;;
22622;SDS011;11478;51.094;7.030;2023-07-13T13:17:23;3.92;;;1.70;;
22622;SDS011;11478;51.094;7.030;2023-07-13T13:20:13;6.82;;;2.10;;
22622;SDS011;11478;51.094;7.030;2023-07-13T13:22:47;6.00;;;1.88;;
22622;SDS011;11478;51.094;7.030;2023-07-13T13:25:14;12.63;;;2.10;;
22622;SDS011;11478;51.094;7.030;2023-07-13T13:27:49;4.80;;;1.70;;
22622;SDS011;11478;51.094;7.030;2023-07-13T13:30:15;10.10;;;2.00;;
22622;SDS011;11478;51.094;7.030;2023-07-13T13:32:45;6.50;;;1.60;;
22622;SDS011;11478;51.094;7.030;2023-07-13T13:35:16;6.85;;;1.60;;
22622;SDS011;11478;51.094;7.030;2023-07-13T13:40:45;5.25;;;1.48;;
22622;SDS011;11478;51.094;7.030;2023-07-13T13:49:18;4.38;;;1.45;;
22622;SDS011;11478;51.094;7.030;2023-07-13T13:52:08;6.00;;;1.50;;
22622;SDS011;11478;51.094;7.030;2023-07-13T13:54:37;4.07;;;1.50;;
22622;SDS011;11478;51.094;7.030;2023-07-13T13:57:11;3.17;;;1.50;;
22622;SDS011;11478;51.094;7.030;2023-07-13T13:59:40;3.35;;;1.30;;
22622;SDS011;11478;51.094;7.030;2023-07-13T14:05:23;3.47;;;1.67;;
22622;SDS011;11478;51.094;7.030;2023-07-13T14:08:11;5.60;;;1.77;;
22622;SDS011;11478;51.094;7.030;2023-07-13T14:10:46;2.55;;;1.40;;
22622;SDS011;11478;51.094;7.030;2023-07-13T14:13:18;8.40;;;1.58;;
22622;SDS011;11478;51.094;7.030;2023-07-13T14:15:48;4.45;;;1.48;;
22622;SDS011;11478;51.094;7.030;2023-07-13T14:18:17;4.80;;;1.67;;
22622;SDS011;11478;51.094;7.030;2023-07-13T14:20:44;5.18;;;1.88;;
22622;SDS011;11478;51.094;7.030;2023-07-13T14:25:44;3.75;;;1.27;;
22622;SDS011;11478;51.094;7.030;2023-07-13T14:28:21;7.35;;;1.50;;
22622;SDS011;11478;51.094;7.030;2023-07-13T14:30:50;5.03;;;1.60;;
22622;SDS011;11478;51.094;7.030;2023-07-13T14:33:17;8.27;;;1.75;;
22622;SDS011;11478;51.094;7.030;2023-07-13T14:35:46;2.65;;;1.20;;
22622;SDS011;11478;51.094;7.030;2023-07-13T14:38:19;5.47;;;1.42;;
22622;SDS011;11478;51.094;7.030;2023-07-13T14:40:48;3.85;;;1.40;;
22622;SDS011;11478;51.094;7.030;2023-07-13T14:43:15;3.65;;;1.25;;
22622;SDS011;11478;51.094;7.030;2023-07-13T14:45:51;2.85;;;1.20;;
22622;SDS011;11478;51.094;7.030;2023-07-13T14:48:25;7.88;;;1.40;;
22622;SDS011;11478;51.094;7.030;2023-07-13T14:51:15;6.07;;;1.48;;
22622;SDS011;11478;51.094;7.030;2023-07-13T14:53:53;4.10;;;1.67;;
22622;SDS011;11478;51.094;7.030;2023-07-13T14:59:09;6.45;;;1.90;;
22622;SDS011;11478;51.094;7.030;2023-07-13T15:01:45;5.15;;;1.52;;
22622;SDS011;11478;51.094;7.030;2023-07-13T15:04:49;4.88;;;1.63;;
22622;SDS011;11478;51.094;7.030;2023-07-13T15:07:18;5.57;;;1.42;;
22622;SDS011;11478;51.094;7.030;2023-07-13T15:09:51;4.07;;;1.40;;
22622;SDS011;11478;51.094;7.030;2023-07-13T15:12:17;5.05;;;1.55;;
22622;SDS011;11478;51.094;7.030;2023-07-13T15:14:49;4.43;;;1.75;;
22622;SDS011;11478;51.094;7.030;2023-07-13T15:23:17;7.68;;;1.40;;
22622;SDS011;11478;51.094;7.030;2023-07-13T15:25:46;4.72;;;1.48;;
22622;SDS011;11478;51.094;7.030;2023-07-13T15:28:12;5.43;;;1.85;;
22622;SDS011;11478;51.094;7.030;2023-07-13T15:30:45;6.30;;;1.70;;
22622;SDS011;11478;51.094;7.030;2023-07-13T15:33:15;5.30;;;1.67;;
22622;SDS011;11478;51.094;7.030;2023-07-13T15:39:23;6.82;;;2.10;;
22622;SDS011;11478;51.094;7.030;2023-07-13T15:41:50;7.50;;;1.98;;
22622;SDS011;11478;51.094;7.030;2023-07-13T15:47:17;6.50;;;2.10;;
22622;SDS011;11478;51.094;7.030;2023-07-13T15:49:43;7.78;;;2.15;;
22622;SDS011;11478;51.094;7.030;2023-07-13T15:52:20;4.65;;;1.85;;
22622;SDS011;11478;51.094;7.030;2023-07-13T15:54:49;5.93;;;2.22;;
22622;SDS011;11478;51.094;7.030;2023-07-13T15:57:21;5.75;;;2.33;;
22622;SDS011;11478;51.094;7.030;2023-07-13T15:59:51;4.63;;;1.92;;
22622;SDS011;11478;51.094;7.030;2023-07-13T16:02:19;5.90;;;2.30;;
22622;SDS011;11478;51.094;7.030;2023-07-13T16:04:56;7.07;;;2.65;;
22622;SDS011;11478;51.094;7.030;2023-07-13T16:10:07;8.50;;;2.55;;
22622;SDS011;11478;51.094;7.030;2023-07-13T16:13:05;9.63;;;2.70;;
22622;SDS011;11478;51.094;7.030;2023-07-13T16:15:39;8.27;;;2.67;;
22622;SDS011;11478;51.094;7.030;2023-07-13T16:18:23;10.95;;;2.65;;
22622;SDS011;11478;51.094;7.030;2023-07-13T16:21:14;4.88;;;2.42;;
22622;SDS011;11478;51.094;7.030;2023-07-13T16:23:48;6.35;;;2.42;;
22622;SDS011;11478;51.094;7.030;2023-07-13T16:28:52;5.57;;;2.22;;
22622;SDS011;11478;51.094;7.030;2023-07-13T16:34:48;6.97;;;2.55;;
22622;SDS011;11478;51.094;7.030;2023-07-13T16:37:27;5.60;;;2.55;;
22622;SDS011;11478;51.094;7.030;2023-07-13T16:43:43;7.55;;;2.78;;
22622;SDS011;11478;51.094;7.030;2023-07-13T16:46:14;6.68;;;2.60;;
22622;SDS011;11478;51.094;7.030;2023-07-13T16:48:49;7.50;;;2.80;;
22622;SDS011;11478;51.094;7.030;2023-07-13T16:51:26;6.70;;;2.47;;
22622;SDS011;11478;51.094;7.030;2023-07-13T16:54:09;6.72;;;2.42;;
22622;SDS011;11478;51.094;7.030;2023-07-13T16:56:47;9.18;;;2.88;;
22622;SDS011;11478;51.094;7.030;2023-07-13T16:59:16;7.15;;;2.60;;
22622;SDS011;11478;51.094;7.030;2023-07-13T17:01:46;6.68;;;2.70;;
22622;SDS011;11478;51.094;7.030;2023-07-13T17:04:12;6.18;;;2.40;;
22622;SDS011;11478;51.094;7.030;2023-07-13T17:06:46;5.88;;;2.38;;
22622;SDS011;11478;51.094;7.030;2023-07-13T17:13:21;5.07;;;2.50;;
22622;SDS011;11478;51.094;7.030;2023-07-13T17:51:50;6.15;;;1.80;;
22622;SDS011;11478;51.094;7.030;2023-07-13T18:01:21;3.53;;;1.88;;
22622;SDS011;11478;51.094;7.030;2023-07-13T18:03:53;3.50;;;1.80;;
22622;SDS011;11478;51.094;7.030;2023-07-13T18:46:01;2.17;;;1.67;;
22622;SDS011;11478;51.094;7.030;2023-07-13T18:48:50;4.28;;;2.00;;
22622;SDS011;11478;51.094;7.030;2023-07-13T18:54:30;6.07;;;1.95;;
22622;SDS011;11478;51.094;7.030;2023-07-13T18:57:18;4.40;;;1.85;;
22622;SDS011;11478;51.094;7.030;2023-07-13T18:59:48;4.82;;;2.03;;
22622;SDS011;11478;51.094;7.030;2023-07-13T19:02:23;8.63;;;1.70;;
22622;SDS011;11478;51.094;7.030;2023-07-13T19:04:50;5.00;;;1.90;;
22622;SDS011;11478;51.094;7.030;2023-07-13T19:07:24;3.40;;;1.90;;
22622;SDS011;11478;51.094;7.030;2023-07-13T19:09:53;3.65;;;1.90;;
22622;SDS011;11478;51.094;7.030;2023-07-13T19:12:22;5.00;;;1.95;;
22622;SDS011;11478;51.094;7.030;2023-07-13T19:14:53;3.80;;;2.15;;
